createdAt,value
2018-05-31T00:00:41.032Z,9.10
2018-05-31T00:03:08.488Z,8.20
2018-05-31T00:05:35.917Z,8.33
2018-05-31T00:08:02.603Z,8.80
2018-05-31T00:10:29.296Z,9.10
2018-05-31T00:12:56.000Z,8.43
2018-05-31T00:15:22.740Z,8.23
2018-05-31T00:17:49.457Z,8.50
2018-05-31T00:20:16.109Z,8.40
2018-05-31T00:22:42.798Z,8.90
2018-05-31T00:25:10.220Z,8.30
2018-05-31T00:27:36.952Z,8.57
2018-05-31T00:30:03.628Z,8.57
2018-05-31T00:32:31.152Z,8.20
2018-05-31T00:34:58.101Z,8.40
2018-05-31T00:37:25.560Z,8.50
2018-05-31T00:39:52.349Z,8.37
2018-05-31T00:42:18.996Z,8.80
2018-05-31T00:44:46.517Z,9.17
2018-05-31T00:47:13.246Z,10.07
2018-05-31T00:49:39.948Z,10.47
2018-05-31T00:52:06.615Z,10.47
2018-05-31T00:54:33.306Z,9.80
2018-05-31T00:57:00.706Z,10.00
2018-05-31T00:59:27.514Z,10.27
2018-05-31T01:01:54.895Z,9.27
2018-05-31T01:04:21.550Z,8.53
2018-05-31T01:06:48.236Z,8.87
2018-05-31T01:09:14.900Z,8.83
2018-05-31T01:11:41.524Z,9.07
2018-05-31T01:14:08.934Z,8.87
2018-05-31T01:16:35.681Z,9.07
2018-05-31T01:19:02.337Z,9.27
2018-05-31T01:21:29.157Z,9.67
2018-05-31T01:23:55.826Z,9.93
2018-05-31T01:26:24.136Z,9.17
2018-05-31T01:28:51.695Z,9.10
2018-05-31T01:31:18.372Z,8.90
2018-05-31T01:33:45.037Z,8.70
2018-05-31T01:36:11.759Z,9.10
2018-05-31T01:38:38.433Z,9.17
2018-05-31T01:41:05.858Z,9.20
2018-05-31T01:43:32.561Z,8.83
2018-05-31T01:45:59.480Z,8.47
2018-05-31T01:48:26.929Z,9.33
2018-05-31T01:50:54.415Z,9.57
2018-05-31T01:53:21.092Z,9.10
2018-05-31T01:55:47.796Z,9.53
2018-05-31T01:58:14.509Z,9.80
2018-05-31T02:00:41.916Z,9.00
2018-05-31T02:03:08.575Z,9.53
2018-05-31T02:05:35.214Z,9.53
2018-05-31T02:08:01.888Z,8.63
2018-05-31T02:10:29.324Z,9.67
2018-05-31T02:12:56.050Z,9.13
2018-05-31T02:15:22.752Z,8.80
2018-05-31T02:17:49.413Z,9.57
2018-05-31T02:20:16.130Z,8.87
2018-05-31T02:22:42.778Z,8.77
2018-05-31T02:25:09.479Z,9.23
2018-05-31T02:27:36.881Z,8.83
2018-05-31T02:30:03.557Z,9.67
2018-05-31T02:32:30.233Z,8.90
2018-05-31T02:34:57.040Z,9.77
2018-05-31T02:37:23.735Z,9.30
2018-05-31T02:39:50.383Z,8.40
2018-05-31T02:42:17.143Z,9.20
2018-05-31T02:44:43.797Z,8.13
2018-05-31T02:47:10.632Z,8.40
2018-05-31T02:49:37.297Z,8.47
2018-05-31T02:52:04.777Z,8.17
2018-05-31T02:54:31.401Z,8.53
2018-05-31T02:56:58.212Z,9.13
2018-05-31T02:59:25.845Z,8.97
2018-05-31T03:01:52.502Z,9.40
2018-05-31T03:04:19.149Z,9.03
2018-05-31T03:06:45.823Z,8.40
2018-05-31T03:09:13.242Z,8.93
2018-05-31T03:11:39.967Z,9.30
2018-05-31T03:14:06.634Z,8.10
2018-05-31T03:16:33.256Z,8.60
2018-05-31T03:18:59.936Z,8.87
2018-05-31T03:21:27.319Z,9.30
2018-05-31T03:23:54.017Z,8.70
2018-05-31T03:26:20.835Z,9.13
2018-05-31T03:28:47.479Z,9.57
2018-05-31T03:31:14.176Z,10.10
2018-05-31T03:33:40.819Z,9.03
2018-05-31T03:36:07.469Z,8.67
2018-05-31T03:38:34.156Z,9.80
2018-05-31T03:41:01.584Z,10.67
2018-05-31T03:43:28.276Z,10.00
2018-05-31T03:45:54.953Z,9.87
2018-05-31T03:48:21.622Z,9.60
2018-05-31T03:50:48.336Z,9.60
2018-05-31T03:53:15.088Z,10.07
2018-05-31T03:55:41.729Z,10.37
2018-05-31T03:58:08.384Z,10.60
2018-05-31T04:00:36.041Z,9.43
2018-05-31T04:03:03.507Z,10.17
2018-05-31T04:05:30.314Z,9.73
2018-05-31T04:07:57.014Z,10.10
2018-05-31T04:10:24.404Z,10.40
2018-05-31T04:12:51.089Z,10.30
2018-05-31T04:15:17.788Z,9.20
2018-05-31T04:17:44.475Z,9.50
2018-05-31T04:20:11.928Z,9.20
2018-05-31T04:22:39.371Z,10.07
2018-05-31T04:25:06.029Z,8.87
2018-05-31T04:27:33.547Z,9.57
2018-05-31T04:30:00.213Z,9.63
2018-05-31T04:32:28.351Z,9.87
2018-05-31T04:34:54.976Z,9.87
2018-05-31T04:37:21.811Z,10.47
2018-05-31T04:39:48.452Z,10.40
2018-05-31T04:42:15.120Z,10.30
2018-05-31T04:44:41.887Z,10.47
2018-05-31T04:47:10.045Z,10.27
2018-05-31T04:49:36.833Z,10.20
2018-05-31T04:52:03.464Z,9.07
2018-05-31T04:54:30.247Z,9.70
2018-05-31T04:56:56.879Z,8.83
2018-05-31T04:59:23.540Z,9.53
2018-05-31T05:01:50.235Z,9.00
2018-05-31T05:04:17.018Z,8.70
2018-05-31T05:06:43.704Z,7.70
2018-05-31T05:09:10.496Z,7.93
2018-05-31T05:11:37.130Z,8.27
2018-05-31T05:14:03.770Z,7.60
2018-05-31T05:16:30.486Z,8.67
2018-05-31T05:18:57.120Z,7.80
2018-05-31T05:21:23.784Z,7.60
2018-05-31T05:23:50.437Z,8.10
2018-05-31T05:26:17.171Z,7.83
2018-05-31T05:28:43.915Z,6.70
2018-05-31T05:31:10.609Z,6.93
2018-05-31T05:33:37.259Z,6.50
2018-05-31T05:36:04.036Z,6.73
2018-05-31T05:38:30.708Z,6.67
2018-05-31T05:40:58.084Z,6.57
2018-05-31T05:43:24.768Z,6.63
2018-05-31T05:45:51.426Z,5.97
2018-05-31T05:48:18.069Z,6.73
2018-05-31T05:50:46.207Z,6.50
2018-05-31T05:53:12.923Z,5.67
2018-05-31T05:55:39.556Z,6.77
2018-05-31T05:58:06.222Z,6.47
2018-05-31T06:00:32.936Z,6.87
2018-05-31T06:02:59.684Z,6.00
2018-05-31T06:05:26.455Z,5.90
2018-05-31T06:07:53.316Z,5.40
2018-05-31T06:10:20.295Z,5.93
2018-05-31T06:12:48.424Z,4.67
2018-05-31T06:15:15.072Z,4.80
2018-05-31T06:17:41.869Z,5.17
2018-05-31T06:20:08.632Z,4.50
2018-05-31T06:22:35.428Z,4.70
2018-05-31T06:25:03.092Z,4.80
2018-05-31T06:27:30.647Z,4.40
2018-05-31T06:29:58.053Z,4.57
2018-05-31T06:32:24.941Z,4.40
2018-05-31T06:34:51.652Z,4.10
2018-05-31T06:37:18.515Z,4.37
2018-05-31T06:39:45.174Z,4.87
2018-05-31T06:42:12.030Z,5.13
2018-05-31T06:44:39.483Z,4.23
2018-05-31T06:47:06.920Z,4.50
2018-05-31T06:49:33.829Z,4.40
2018-05-31T06:52:00.484Z,4.03
2018-05-31T06:54:27.118Z,4.00
2018-05-31T06:56:54.247Z,3.70
2018-05-31T06:59:20.912Z,3.43
2018-05-31T07:01:47.585Z,4.20
2018-05-31T07:04:15.282Z,3.40
2018-05-31T07:06:41.969Z,3.87
2018-05-31T07:09:08.664Z,3.83
2018-05-31T07:11:35.365Z,4.17
2018-05-31T07:14:02.984Z,3.60
2018-05-31T07:16:29.781Z,3.53
2018-05-31T07:18:57.350Z,3.70
2018-05-31T07:21:24.539Z,3.70
2018-05-31T07:23:51.336Z,3.43
2018-05-31T07:26:18.740Z,3.90
2018-05-31T07:28:45.432Z,3.87
2018-05-31T07:31:13.052Z,3.70
2018-05-31T07:33:39.833Z,3.40
2018-05-31T07:36:07.250Z,3.30
2018-05-31T07:38:33.936Z,3.70
2018-05-31T07:41:01.359Z,3.33
2018-05-31T07:43:28.105Z,3.30
2018-05-31T07:45:54.869Z,10.70
2018-05-31T07:48:22.259Z,3.40
2018-05-31T07:50:48.985Z,3.70
2018-05-31T07:53:15.730Z,3.63
2018-05-31T07:55:42.331Z,4.13
2018-05-31T07:58:09.027Z,3.80
2018-05-31T08:00:35.722Z,3.47
2018-05-31T08:03:03.175Z,4.00
2018-05-31T08:05:30.712Z,3.67
2018-05-31T08:07:57.340Z,3.37
2018-05-31T08:10:24.030Z,3.57
2018-05-31T08:12:50.692Z,3.57
2018-05-31T08:15:17.341Z,3.70
2018-05-31T08:17:44.041Z,3.80
2018-05-31T08:20:11.569Z,3.30
2018-05-31T08:22:38.234Z,3.73
2018-05-31T08:25:05.640Z,3.10
2018-05-31T08:27:32.313Z,3.37
2018-05-31T08:29:58.978Z,2.80
2018-05-31T08:32:26.371Z,3.10
2018-05-31T08:34:53.054Z,3.03
2018-05-31T08:37:19.849Z,2.90
2018-05-31T08:39:46.518Z,3.67
2018-05-31T08:42:13.282Z,3.83
2018-05-31T08:44:40.665Z,9.13
2018-05-31T08:47:07.334Z,18.90
2018-05-31T08:49:34.018Z,10.00
2018-05-31T08:52:01.428Z,7.07
2018-05-31T08:54:28.151Z,9.23
2018-05-31T08:56:54.812Z,7.50
2018-05-31T08:59:22.238Z,5.77
2018-05-31T09:01:49.293Z,5.27
2018-05-31T09:04:16.006Z,7.67
2018-05-31T09:06:43.421Z,7.83
2018-05-31T09:09:10.173Z,6.57
2018-05-31T09:11:36.846Z,6.87
2018-05-31T09:14:04.305Z,6.77
2018-05-31T09:16:31.704Z,7.73
2018-05-31T09:18:58.359Z,8.23
2018-05-31T09:21:25.043Z,9.00
2018-05-31T09:23:51.733Z,7.07
2018-05-31T09:26:18.354Z,6.53
2018-05-31T09:28:45.046Z,5.87
2018-05-31T09:31:12.449Z,4.77
2018-05-31T09:33:39.085Z,3.77
2018-05-31T09:36:05.746Z,3.20
2018-05-31T09:38:32.509Z,3.00
2018-05-31T09:40:59.370Z,3.50
2018-05-31T09:43:26.829Z,3.07
2018-05-31T09:45:54.243Z,3.13
2018-05-31T09:48:20.897Z,3.60
2018-05-31T09:50:47.591Z,4.60
2018-05-31T09:53:14.272Z,4.37
2018-05-31T09:55:40.968Z,5.00
2018-05-31T09:58:07.657Z,4.67
2018-05-31T10:00:37.197Z,4.27
2018-05-31T10:03:03.918Z,4.87
2018-05-31T10:05:30.634Z,4.23
2018-05-31T10:07:57.292Z,4.60
2018-05-31T10:10:24.672Z,4.90
2018-05-31T10:12:52.068Z,4.30
2018-05-31T10:15:18.742Z,4.97
2018-05-31T10:17:45.595Z,4.67
2018-05-31T10:20:13.085Z,3.70
2018-05-31T10:22:39.732Z,4.07
2018-05-31T10:25:06.454Z,4.10
2018-05-31T10:27:33.915Z,3.87
2018-05-31T10:30:00.726Z,3.37
2018-05-31T10:32:28.100Z,4.30
2018-05-31T10:34:55.494Z,4.23
2018-05-31T10:37:22.141Z,4.00
2018-05-31T10:39:48.789Z,4.03
2018-05-31T10:42:22.462Z,3.27
2018-05-31T10:44:49.078Z,3.67
2018-05-31T10:47:16.486Z,3.63
2018-05-31T10:49:43.119Z,4.07
2018-05-31T10:52:09.837Z,3.60
2018-05-31T10:54:36.486Z,3.97
2018-05-31T10:57:03.239Z,3.13
2018-05-31T10:59:29.889Z,3.80
2018-05-31T11:01:57.358Z,4.17
2018-05-31T11:04:24.849Z,3.97
2018-05-31T11:06:51.745Z,4.20
2018-05-31T11:09:18.552Z,4.27
2018-05-31T11:11:45.997Z,3.70
2018-05-31T11:14:12.857Z,4.87
2018-05-31T11:16:39.675Z,4.47
2018-05-31T11:19:07.088Z,4.80
2018-05-31T11:21:33.767Z,4.50
2018-05-31T11:24:01.432Z,4.37
2018-05-31T11:26:28.812Z,4.83
2018-05-31T11:28:55.485Z,4.93
2018-05-31T11:31:22.163Z,4.60
2018-05-31T11:33:49.600Z,4.80
2018-05-31T11:36:16.280Z,4.93
2018-05-31T11:38:42.946Z,5.13
2018-05-31T11:41:09.601Z,4.67
2018-05-31T11:43:36.251Z,6.73
2018-05-31T11:46:02.928Z,6.30
2018-05-31T11:48:30.304Z,5.80
2018-05-31T11:50:56.988Z,5.93
2018-05-31T11:53:23.655Z,4.93
2018-05-31T11:55:51.243Z,6.10
2018-05-31T11:58:17.912Z,6.17
2018-05-31T12:00:44.620Z,6.93
2018-05-31T12:03:11.293Z,6.57
2018-05-31T12:05:37.987Z,6.57
2018-05-31T12:08:04.714Z,5.43
2018-05-31T12:10:32.102Z,6.40
2018-05-31T12:12:58.814Z,8.27
2018-05-31T12:15:25.561Z,9.70
2018-05-31T12:17:52.228Z,11.23
2018-05-31T12:20:19.808Z,10.07
2018-05-31T12:22:46.555Z,8.03
2018-05-31T12:25:13.189Z,9.17
2018-05-31T12:27:39.858Z,8.87
2018-05-31T12:30:07.266Z,8.37
2018-05-31T12:32:33.895Z,6.60
2018-05-31T12:35:00.577Z,6.87
2018-05-31T12:37:27.247Z,6.63
2018-05-31T12:39:54.684Z,6.30
2018-05-31T12:42:21.325Z,6.67
2018-05-31T12:44:48.772Z,6.30
2018-05-31T12:47:15.413Z,8.53
2018-05-31T12:49:42.156Z,7.30
2018-05-31T12:52:08.823Z,9.70
2018-05-31T12:54:36.207Z,8.43
2018-05-31T12:57:03.816Z,8.53
2018-05-31T12:59:34.850Z,8.53
2018-05-31T13:02:01.519Z,10.67
2018-05-31T13:04:29.032Z,9.07
2018-05-31T13:06:55.842Z,10.27
2018-05-31T13:09:22.502Z,10.97
2018-05-31T13:11:49.996Z,13.67
2018-05-31T13:14:16.858Z,11.80
2018-05-31T13:16:44.283Z,12.80
2018-05-31T13:19:10.936Z,12.07
2018-05-31T13:21:37.581Z,11.77
2018-05-31T13:24:04.952Z,9.50
2018-05-31T13:26:49.896Z,11.30
2018-05-31T13:29:17.793Z,11.27
2018-05-31T13:31:44.524Z,9.73
2018-05-31T13:34:12.110Z,13.97
2018-05-31T13:36:38.777Z,11.40
2018-05-31T13:39:05.517Z,10.40
2018-05-31T13:41:32.160Z,10.30
2018-05-31T13:43:59.388Z,9.70
2018-05-31T13:46:26.048Z,9.90
2018-05-31T13:48:52.741Z,11.07
2018-05-31T13:51:19.364Z,9.93
2018-05-31T13:53:46.793Z,11.40
2018-05-31T13:56:13.463Z,9.90
2018-05-31T13:58:41.081Z,9.70
2018-05-31T14:01:07.818Z,11.33
2018-05-31T14:03:34.482Z,8.40
2018-05-31T14:06:01.182Z,8.73
2018-05-31T14:08:27.825Z,10.02
2018-05-31T14:10:54.537Z,12.43
2018-05-31T14:13:21.201Z,9.68
2018-05-31T14:15:47.885Z,9.25
2018-05-31T14:18:14.664Z,9.00
2018-05-31T14:20:41.916Z,8.60
2018-05-31T14:23:08.789Z,9.88
2018-05-31T14:25:35.483Z,11.80
2018-05-31T14:28:02.989Z,10.63
2018-05-31T14:30:29.645Z,9.90
2018-05-31T14:32:57.113Z,9.43
2018-05-31T14:35:23.777Z,9.20
2018-05-31T14:37:51.218Z,11.90
2018-05-31T14:40:17.908Z,9.30
2018-05-31T14:42:44.579Z,10.60
2018-05-31T14:45:11.249Z,8.55
2018-05-31T14:47:38.800Z,10.88
2018-05-31T14:50:06.222Z,9.73
2018-05-31T14:52:32.866Z,8.85
2018-05-31T14:54:59.533Z,8.77
2018-05-31T14:57:26.197Z,11.75
2018-05-31T14:59:52.861Z,10.85
2018-05-31T15:02:19.518Z,11.95
2018-05-31T15:04:47.136Z,11.65
2018-05-31T15:07:13.825Z,11.85
2018-05-31T15:09:40.630Z,11.80
2018-05-31T15:12:07.328Z,12.13
2018-05-31T15:14:35.487Z,10.27
2018-05-31T15:17:02.157Z,11.50
2018-05-31T15:19:29.557Z,9.73
2018-05-31T15:21:56.256Z,10.32
2018-05-31T15:24:23.689Z,11.67
2018-05-31T15:26:51.145Z,11.03
2018-05-31T15:29:17.865Z,10.47
2018-05-31T15:31:44.720Z,9.50
2018-05-31T15:34:11.370Z,9.33
2018-05-31T15:36:38.799Z,9.77
2018-05-31T15:39:05.933Z,8.80
2018-05-31T15:41:32.596Z,8.70
2018-05-31T15:44:00.386Z,7.33
2018-05-31T15:46:27.325Z,8.37
2018-05-31T15:48:53.995Z,8.93
2018-05-31T15:51:21.498Z,10.47
2018-05-31T15:53:48.215Z,10.23
2018-05-31T15:56:14.913Z,10.20
2018-05-31T15:58:41.782Z,8.60
2018-05-31T16:01:09.428Z,7.43
2018-05-31T16:03:36.071Z,7.40
2018-05-31T16:06:03.463Z,8.60
2018-05-31T16:08:30.303Z,8.40
2018-05-31T16:10:56.994Z,8.83
2018-05-31T16:13:23.665Z,10.53
2018-05-31T16:15:50.404Z,7.97
2018-05-31T16:18:17.930Z,13.70
2018-05-31T16:20:44.660Z,29.37
2018-05-31T16:23:11.429Z,30.67
2018-05-31T16:25:39.108Z,16.63
2018-05-31T16:28:05.869Z,16.10
2018-05-31T16:30:32.635Z,44.93
2018-05-31T16:32:59.312Z,16.40
2018-05-31T16:35:26.801Z,15.57
2018-05-31T16:37:53.495Z,14.57
2018-05-31T16:40:20.150Z,14.97
2018-05-31T16:42:47.550Z,14.00
2018-05-31T16:45:14.220Z,12.83
2018-05-31T16:47:40.893Z,13.13
2018-05-31T16:50:08.338Z,13.53
2018-05-31T16:52:34.992Z,13.47
2018-05-31T16:55:02.404Z,11.83
2018-05-31T16:57:29.116Z,11.80
2018-05-31T16:59:55.874Z,12.33
2018-05-31T17:02:22.548Z,12.27
2018-05-31T17:04:49.955Z,11.50
2018-05-31T17:07:16.696Z,11.53
2018-05-31T17:09:43.360Z,11.40
2018-05-31T17:12:10.053Z,13.47
2018-05-31T17:14:37.582Z,14.67
2018-05-31T17:17:04.377Z,12.97
2018-05-31T17:19:31.039Z,10.87
2018-05-31T17:21:57.751Z,13.97
2018-05-31T17:24:24.515Z,14.20
2018-05-31T17:26:51.265Z,12.30
2018-05-31T17:29:18.085Z,13.37
2018-05-31T17:31:44.733Z,15.40
2018-05-31T17:34:11.490Z,15.90
2018-05-31T17:36:38.136Z,14.87
2018-05-31T17:39:04.759Z,14.43
2018-05-31T17:41:31.430Z,13.07
2018-05-31T17:43:58.079Z,13.03
2018-05-31T17:46:25.538Z,14.70
2018-05-31T17:48:52.964Z,15.87
2018-05-31T17:51:19.669Z,13.93
2018-05-31T17:53:46.309Z,13.47
2018-05-31T17:56:12.989Z,13.50
2018-05-31T17:58:39.688Z,14.37
2018-05-31T18:01:06.375Z,13.63
2018-05-31T18:03:33.057Z,12.60
2018-05-31T18:05:59.733Z,12.70
2018-05-31T18:08:26.702Z,10.97
2018-05-31T18:10:53.333Z,11.47
2018-05-31T18:13:20.072Z,12.77
2018-05-31T18:15:46.757Z,13.20
2018-05-31T18:18:13.477Z,11.80
2018-05-31T18:20:41.129Z,12.17
2018-05-31T18:23:07.757Z,11.67
2018-05-31T18:25:35.274Z,11.43
2018-05-31T18:28:01.939Z,10.73
2018-05-31T18:30:28.652Z,12.37
2018-05-31T18:32:55.310Z,10.83
2018-05-31T18:35:22.048Z,10.30
2018-05-31T18:37:48.822Z,10.17
2018-05-31T18:40:15.488Z,10.20
2018-05-31T18:42:42.968Z,10.33
2018-05-31T18:45:09.604Z,12.30
2018-05-31T18:47:36.279Z,11.20
2018-05-31T18:50:02.918Z,12.50
2018-05-31T18:52:29.648Z,10.50
2018-05-31T18:54:56.448Z,10.57
2018-05-31T18:57:23.161Z,10.60
2018-05-31T18:59:49.837Z,11.80
2018-05-31T19:02:16.525Z,10.23
2018-05-31T19:04:43.407Z,11.07
2018-05-31T19:07:10.922Z,11.00
2018-05-31T19:09:37.553Z,11.30
2018-05-31T19:12:04.262Z,10.50
2018-05-31T19:14:31.701Z,11.93
2018-05-31T19:16:59.166Z,11.47
2018-05-31T19:19:31.825Z,12.93
2018-05-31T19:21:59.313Z,13.83
2018-05-31T19:24:32.995Z,13.23
2018-05-31T19:29:30.778Z,13.00
2018-05-31T19:31:58.219Z,13.93
2018-05-31T19:34:24.938Z,13.73
2018-05-31T19:36:57.701Z,13.63
2018-05-31T19:39:24.389Z,12.93
2018-05-31T19:41:53.031Z,12.30
2018-05-31T19:44:25.708Z,11.00
2018-05-31T19:46:52.393Z,10.90
2018-05-31T19:49:19.135Z,10.40
2018-05-31T19:51:51.757Z,9.90
2018-05-31T19:54:18.454Z,10.00
2018-05-31T19:56:45.970Z,9.97
2018-05-31T19:59:18.785Z,10.20
2018-05-31T20:01:51.543Z,10.27
2018-05-31T20:04:18.260Z,10.33
2018-05-31T20:06:44.895Z,9.73
2018-05-31T20:09:11.795Z,11.80
2018-05-31T20:11:38.479Z,10.87
2018-05-31T20:14:05.470Z,12.07
2018-05-31T20:16:32.150Z,10.70
2018-05-31T20:18:58.886Z,12.10
2018-05-31T20:21:25.533Z,12.67
2018-05-31T20:23:52.278Z,11.83
2018-05-31T20:26:18.974Z,12.23
2018-05-31T20:28:45.670Z,11.40
2018-05-31T20:31:12.354Z,11.00
2018-05-31T20:33:39.410Z,11.40
2018-05-31T20:36:06.101Z,12.03
2018-05-31T20:38:32.779Z,12.00
2018-05-31T20:40:59.447Z,11.80
2018-05-31T20:43:26.910Z,10.77
2018-05-31T20:45:54.313Z,12.10
2018-05-31T20:48:21.062Z,12.57
2018-05-31T20:50:47.826Z,12.43
2018-05-31T20:53:14.526Z,11.97
2018-05-31T20:55:41.257Z,11.27
2018-05-31T20:58:07.950Z,11.00
2018-05-31T21:00:35.381Z,10.67
2018-05-31T21:03:02.051Z,11.77
2018-05-31T21:05:29.451Z,11.90
2018-05-31T21:07:56.209Z,11.53
2018-05-31T21:10:22.893Z,10.57
2018-05-31T21:12:50.318Z,10.20
2018-05-31T21:15:16.980Z,10.53
2018-05-31T21:17:44.399Z,10.53
2018-05-31T21:20:11.221Z,10.47
2018-05-31T21:22:37.901Z,10.63
2018-05-31T21:25:04.644Z,11.17
2018-05-31T21:27:32.786Z,10.93
2018-05-31T21:29:59.486Z,10.63
2018-05-31T21:32:26.177Z,10.80
2018-05-31T21:34:52.874Z,10.50
2018-05-31T21:37:19.684Z,11.10
2018-05-31T21:39:46.492Z,11.53
2018-05-31T21:42:13.161Z,10.77
2018-05-31T21:44:39.821Z,10.80
2018-05-31T21:47:07.267Z,10.37
2018-05-31T21:49:33.921Z,11.17
2018-05-31T21:52:01.481Z,11.23
2018-05-31T21:54:28.893Z,9.93
2018-05-31T21:56:55.562Z,9.40
2018-05-31T21:59:22.319Z,10.03
2018-05-31T22:01:49.873Z,9.70
2018-05-31T22:04:17.271Z,9.90
2018-05-31T22:06:43.935Z,9.70
2018-05-31T22:09:10.629Z,9.40
2018-05-31T22:11:37.515Z,8.70
2018-05-31T22:14:04.172Z,9.53
2018-05-31T22:16:30.928Z,9.37
2018-05-31T22:18:57.556Z,9.70
2018-05-31T22:21:24.222Z,9.03
2018-05-31T22:23:51.633Z,9.00
2018-05-31T22:26:19.069Z,9.37
2018-05-31T22:28:45.708Z,9.73
2018-05-31T22:31:12.336Z,10.00
2018-05-31T22:33:38.990Z,9.73
2018-05-31T22:36:05.665Z,10.17
2018-05-31T22:38:32.337Z,9.97
2018-05-31T22:40:59.028Z,10.27
2018-05-31T22:43:25.696Z,10.90
2018-05-31T22:45:53.110Z,10.63
2018-05-31T22:48:19.918Z,10.83
2018-05-31T22:50:46.586Z,10.27
2018-05-31T22:53:13.303Z,11.20
2018-05-31T22:55:39.951Z,10.70
2018-05-31T22:58:06.645Z,10.30
2018-05-31T23:00:33.341Z,10.50
2018-05-31T23:03:00.129Z,10.40
2018-05-31T23:05:26.801Z,9.23
2018-05-31T23:07:53.509Z,10.27
2018-05-31T23:10:20.925Z,11.10
2018-05-31T23:12:47.646Z,10.60
2018-05-31T23:15:14.339Z,9.37
2018-05-31T23:17:42.485Z,9.20
2018-05-31T23:20:09.148Z,8.97
2018-05-31T23:22:35.881Z,9.33
2018-05-31T23:25:03.285Z,10.20
2018-05-31T23:27:29.912Z,10.17
2018-05-31T23:29:57.297Z,9.97
2018-05-31T23:32:24.158Z,10.63
2018-05-31T23:34:50.928Z,10.20
2018-05-31T23:37:17.601Z,10.97
2018-05-31T23:39:44.364Z,10.40
2018-05-31T23:42:10.999Z,11.93
2018-05-31T23:44:37.657Z,11.80
2018-05-31T23:47:04.328Z,12.67
2018-05-31T23:49:31.780Z,11.67
2018-05-31T23:51:58.428Z,11.93
2018-05-31T23:54:25.803Z,12.77
2018-05-31T23:56:52.449Z,12.10
2018-05-31T23:59:19.229Z,11.73
